createdAt,value
2018-06-01T00:00:30.363Z,20.2
2018-06-01T00:01:31.988Z,20.2
2018-06-01T00:02:33.607Z,20.1
2018-06-01T00:03:35.223Z,20.2
2018-06-01T00:04:36.846Z,20.1
2018-06-01T00:05:38.458Z,20.2
2018-06-01T00:06:40.086Z,20.1
2018-06-01T00:07:41.699Z,20.1
2018-06-01T00:08:43.325Z,20.1
2018-06-01T00:09:44.938Z,20.1
2018-06-01T00:10:46.558Z,20.0
2018-06-01T00:11:48.180Z,19.9
2018-06-01T00:12:49.800Z,19.9
2018-06-01T00:13:51.421Z,20.0
2018-06-01T00:14:53.042Z,20.0
2018-06-01T00:15:54.660Z,19.9
2018-06-01T00:16:56.282Z,19.8
2018-06-01T00:17:57.897Z,19.9
2018-06-01T00:18:59.522Z,20.0
2018-06-01T00:20:01.133Z,19.9
2018-06-01T00:21:02.763Z,19.7
2018-06-01T00:22:04.366Z,19.9
2018-06-01T00:23:05.990Z,19.8
2018-06-01T00:24:07.606Z,19.7
2018-06-01T00:25:09.233Z,19.7
2018-06-01T00:26:10.848Z,19.8
2018-06-01T00:27:12.468Z,19.7
2018-06-01T00:28:14.088Z,19.7
2018-06-01T00:29:15.704Z,19.7
2018-06-01T00:30:17.323Z,19.6
2018-06-01T00:31:18.943Z,19.6
2018-06-01T00:32:20.559Z,19.7
2018-06-01T00:33:22.184Z,19.6
2018-06-01T00:34:23.798Z,19.6
2018-06-01T00:35:25.413Z,19.6
2018-06-01T00:36:27.037Z,19.6
2018-06-01T00:37:28.661Z,19.5
2018-06-01T00:38:30.271Z,19.5
2018-06-01T00:39:31.897Z,19.5
2018-06-01T00:40:33.513Z,19.5
2018-06-01T00:41:35.127Z,19.5
2018-06-01T00:42:36.749Z,19.6
2018-06-01T00:43:38.362Z,19.5
2018-06-01T00:44:39.983Z,19.5
2018-06-01T00:45:41.602Z,19.5
2018-06-01T00:46:43.229Z,19.4
2018-06-01T00:47:44.847Z,19.5
2018-06-01T00:48:46.467Z,19.3
2018-06-01T00:49:48.082Z,19.4
2018-06-01T00:50:49.697Z,19.3
2018-06-01T00:51:51.322Z,19.5
2018-06-01T00:52:52.935Z,19.4
2018-06-01T00:53:54.561Z,19.4
2018-06-01T00:54:56.180Z,19.4
2018-06-01T00:55:57.792Z,19.5
2018-06-01T00:56:59.414Z,19.4
2018-06-01T00:58:01.027Z,19.4
2018-06-01T00:59:02.650Z,19.5
2018-06-01T01:00:04.272Z,19.4
2018-06-01T01:01:05.887Z,19.4
2018-06-01T01:02:07.510Z,19.4
2018-06-01T01:03:09.133Z,19.4
2018-06-01T01:04:10.749Z,19.4
2018-06-01T01:05:12.370Z,19.3
2018-06-01T01:06:13.988Z,19.5
2018-06-01T01:07:15.606Z,19.4
2018-06-01T01:08:17.233Z,19.4
2018-06-01T01:09:18.848Z,19.4
2018-06-01T01:10:20.465Z,19.4
2018-06-01T01:11:22.084Z,19.4
2018-06-01T01:12:23.703Z,19.4
2018-06-01T01:13:25.318Z,19.4
2018-06-01T01:14:26.939Z,19.4
2018-06-01T01:15:28.563Z,19.3
2018-06-01T01:16:30.177Z,19.4
2018-06-01T01:17:31.791Z,19.4
2018-06-01T01:18:33.415Z,19.4
2018-06-01T01:19:35.034Z,19.4
2018-06-01T01:20:36.656Z,19.3
2018-06-01T01:21:38.275Z,19.3
2018-06-01T01:22:39.902Z,19.4
2018-06-01T01:23:41.514Z,19.4
2018-06-01T01:24:43.133Z,19.4
2018-06-01T01:25:44.747Z,19.4
2018-06-01T01:26:46.372Z,19.4
2018-06-01T01:27:47.987Z,19.4
2018-06-01T01:28:49.607Z,19.4
2018-06-01T01:29:51.224Z,19.4
2018-06-01T01:30:52.846Z,19.4
2018-06-01T01:31:54.465Z,19.4
2018-06-01T01:32:56.091Z,19.4
2018-06-01T01:33:57.700Z,19.3
2018-06-01T01:34:59.322Z,19.4
2018-06-01T01:36:00.942Z,19.4
2018-06-01T01:37:02.557Z,19.5
2018-06-01T01:38:04.175Z,19.4
2018-06-01T01:39:05.788Z,19.4
2018-06-01T01:40:07.410Z,19.4
2018-06-01T01:41:09.028Z,19.4
2018-06-01T01:42:10.644Z,19.4
2018-06-01T01:43:12.261Z,19.5
2018-06-01T01:44:13.887Z,19.4
2018-06-01T01:45:15.508Z,19.4
2018-06-01T01:46:17.122Z,19.4
2018-06-01T01:47:18.740Z,19.4
2018-06-01T01:48:20.362Z,19.4
2018-06-01T01:49:21.976Z,19.4
2018-06-01T01:50:23.597Z,19.4
2018-06-01T01:51:25.220Z,19.3
2018-06-01T01:52:26.842Z,19.3
2018-06-01T01:53:28.461Z,19.4
2018-06-01T01:54:30.082Z,19.4
2018-06-01T01:55:31.699Z,19.4
2018-06-01T01:56:33.321Z,19.4
2018-06-01T01:57:34.941Z,19.5
2018-06-01T01:58:36.558Z,19.4
2018-06-01T01:59:38.184Z,19.3
2018-06-01T02:00:39.795Z,19.3
2018-06-01T02:01:41.417Z,19.4
2018-06-01T02:02:43.028Z,19.4
2018-06-01T02:03:44.649Z,19.4
2018-06-01T02:04:46.271Z,19.4
2018-06-01T02:05:47.888Z,19.3
2018-06-01T02:06:49.508Z,19.3
2018-06-01T02:07:51.123Z,19.4
2018-06-01T02:08:52.740Z,19.3
2018-06-01T02:09:54.361Z,19.3
2018-06-01T02:10:55.976Z,19.3
2018-06-01T02:11:57.593Z,19.3
2018-06-01T02:12:59.213Z,19.2
2018-06-01T02:14:00.836Z,19.2
2018-06-01T02:15:02.457Z,19.4
2018-06-01T02:16:04.080Z,19.4
2018-06-01T02:17:05.690Z,19.2
2018-06-01T02:18:07.304Z,19.3
2018-06-01T02:19:08.928Z,19.2
2018-06-01T02:20:10.543Z,19.2
2018-06-01T02:21:12.166Z,19.2
2018-06-01T02:22:13.786Z,19.3
2018-06-01T02:23:15.401Z,19.2
2018-06-01T02:24:17.015Z,19.3
2018-06-01T02:25:18.639Z,19.3
2018-06-01T02:26:20.256Z,19.2
2018-06-01T02:27:21.872Z,19.1
2018-06-01T02:28:23.488Z,19.2
2018-06-01T02:29:25.105Z,19.2
2018-06-01T02:30:26.721Z,19.2
2018-06-01T02:31:28.344Z,19.2
2018-06-01T02:32:29.964Z,19.2
2018-06-01T02:33:31.577Z,19.2
2018-06-01T02:34:33.199Z,19.2
2018-06-01T02:35:34.818Z,19.1
2018-06-01T02:36:36.434Z,19.2
2018-06-01T02:37:38.055Z,19.1
2018-06-01T02:38:39.670Z,19.2
2018-06-01T02:39:41.294Z,19.2
2018-06-01T02:40:42.914Z,19.1
2018-06-01T02:41:44.539Z,19.1
2018-06-01T02:42:46.156Z,19.2
2018-06-01T02:43:47.776Z,19.1
2018-06-01T02:44:49.392Z,19.1
2018-06-01T02:45:51.013Z,19.1
2018-06-01T02:46:52.629Z,19.0
2018-06-01T02:47:54.251Z,19.1
2018-06-01T02:48:55.880Z,19.1
2018-06-01T02:49:57.487Z,19.0
2018-06-01T02:50:59.107Z,19.1
2018-06-01T02:52:00.723Z,19.1
2018-06-01T02:53:02.338Z,19.1
2018-06-01T02:54:03.997Z,19.1
2018-06-01T02:55:05.619Z,19.2
2018-06-01T02:56:07.236Z,19.1
2018-06-01T02:57:08.859Z,19.1
2018-06-01T02:58:10.477Z,19.1
2018-06-01T02:59:12.090Z,19.0
2018-06-01T03:00:13.709Z,19.0
2018-06-01T03:01:15.324Z,19.0
2018-06-01T03:02:16.948Z,19.0
2018-06-01T03:03:18.563Z,19.1
2018-06-01T03:04:20.784Z,19.0
2018-06-01T03:05:22.395Z,19.0
2018-06-01T03:06:24.020Z,19.1
2018-06-01T03:07:25.641Z,19.1
2018-06-01T03:08:27.258Z,19.2
2018-06-01T03:09:28.884Z,19.1
2018-06-01T03:10:30.498Z,19.1
2018-06-01T03:11:32.120Z,19.1
2018-06-01T03:12:33.741Z,19.0
2018-06-01T03:13:35.363Z,19.1
2018-06-01T03:14:36.982Z,19.1
2018-06-01T03:15:38.609Z,19.0
2018-06-01T03:16:40.222Z,19.1
2018-06-01T03:17:41.842Z,19.1
2018-06-01T03:18:43.466Z,19.2
2018-06-01T03:19:45.080Z,19.1
2018-06-01T03:20:46.702Z,19.1
2018-06-01T03:21:48.338Z,19.1
2018-06-01T03:22:49.960Z,19.1
2018-06-01T03:23:51.581Z,19.1
2018-06-01T03:24:53.201Z,19.1
2018-06-01T03:25:54.826Z,19.0
2018-06-01T03:26:56.444Z,19.1
2018-06-01T03:27:58.069Z,19.0
2018-06-01T03:28:59.691Z,19.0
2018-06-01T03:30:01.320Z,19.1
2018-06-01T03:31:02.939Z,19.0
2018-06-01T03:32:04.565Z,19.1
2018-06-01T03:33:06.182Z,19.0
2018-06-01T03:34:07.800Z,19.1
2018-06-01T03:35:09.429Z,19.0
2018-06-01T03:36:11.042Z,19.2
2018-06-01T03:37:12.670Z,19.1
2018-06-01T03:38:14.289Z,19.1
2018-06-01T03:39:15.917Z,19.2
2018-06-01T03:40:17.544Z,19.1
2018-06-01T03:41:19.157Z,19.2
2018-06-01T03:42:20.782Z,19.2
2018-06-01T03:43:22.398Z,19.2
2018-06-01T03:44:24.017Z,19.2
2018-06-01T03:45:25.643Z,19.2
2018-06-01T03:46:27.268Z,19.3
2018-06-01T03:47:28.892Z,19.4
2018-06-01T03:48:30.517Z,19.4
2018-06-01T03:49:32.144Z,19.5
2018-06-01T03:50:33.759Z,19.4
2018-06-01T03:51:35.385Z,19.5
2018-06-01T03:52:37.008Z,19.4
2018-06-01T03:53:38.626Z,19.5
2018-06-01T03:54:40.247Z,19.4
2018-06-01T03:55:41.869Z,19.5
2018-06-01T03:56:43.490Z,19.4
2018-06-01T03:57:45.115Z,19.4
2018-06-01T03:58:46.741Z,19.5
2018-06-01T03:59:48.362Z,19.5
2018-06-01T04:00:49.991Z,19.5
2018-06-01T04:01:51.610Z,19.5
2018-06-01T04:02:53.263Z,19.5
2018-06-01T04:03:54.862Z,19.6
2018-06-01T04:04:56.479Z,19.6
2018-06-01T04:05:58.104Z,19.6
2018-06-01T04:06:59.727Z,19.7
2018-06-01T04:08:01.356Z,19.7
2018-06-01T04:09:02.976Z,19.7
2018-06-01T04:10:04.600Z,19.7
2018-06-01T04:11:06.220Z,19.7
2018-06-01T04:12:07.845Z,19.7
2018-06-01T04:13:09.475Z,19.8
2018-06-01T04:14:11.096Z,19.8
2018-06-01T04:15:12.727Z,19.8
2018-06-01T04:16:14.348Z,19.9
2018-06-01T04:17:15.973Z,19.9
2018-06-01T04:18:17.599Z,19.9
2018-06-01T04:19:19.221Z,19.9
2018-06-01T04:20:20.846Z,19.9
2018-06-01T04:21:22.475Z,19.9
2018-06-01T04:22:24.095Z,19.9
2018-06-01T04:23:25.721Z,20.0
2018-06-01T04:24:27.341Z,20.1
2018-06-01T04:25:28.968Z,20.0
2018-06-01T04:26:30.588Z,20.1
2018-06-01T04:27:32.211Z,20.2
2018-06-01T04:28:33.841Z,20.2
2018-06-01T04:29:35.464Z,20.4
2018-06-01T04:30:37.090Z,20.3
2018-06-01T04:31:38.710Z,20.4
2018-06-01T04:32:40.340Z,20.4
2018-06-01T04:33:41.963Z,20.5
2018-06-01T04:34:43.591Z,20.5
2018-06-01T04:35:45.209Z,20.5
2018-06-01T04:36:46.838Z,20.5
2018-06-01T04:37:48.463Z,20.7
2018-06-01T04:38:50.086Z,20.6
2018-06-01T04:39:51.708Z,20.6
2018-06-01T04:40:53.329Z,20.7
2018-06-01T04:41:54.959Z,20.7
2018-06-01T04:42:56.574Z,20.7
2018-06-01T04:43:58.205Z,20.7
2018-06-01T04:44:59.831Z,20.6
2018-06-01T04:46:01.461Z,20.7
2018-06-01T04:47:03.076Z,20.6
2018-06-01T04:48:04.706Z,20.6
2018-06-01T04:49:06.324Z,20.3
2018-06-01T04:50:07.946Z,20.4
2018-06-01T04:51:09.567Z,20.2
2018-06-01T04:52:11.189Z,20.1
2018-06-01T04:53:12.813Z,20.1
2018-06-01T04:54:14.435Z,20.1
2018-06-01T04:55:16.059Z,20.0
2018-06-01T04:56:17.685Z,20.0
2018-06-01T04:57:19.301Z,20.1
2018-06-01T04:58:20.924Z,20.0
2018-06-01T04:59:22.553Z,20.1
2018-06-01T05:00:24.173Z,20.1
2018-06-01T05:01:25.800Z,20.1
2018-06-01T05:02:27.422Z,20.1
2018-06-01T05:03:29.047Z,20.1
2018-06-01T05:04:30.668Z,20.3
2018-06-01T05:05:32.297Z,20.4
2018-06-01T05:06:33.924Z,20.3
2018-06-01T05:07:35.548Z,20.5
2018-06-01T05:08:37.176Z,20.5
2018-06-01T05:09:38.811Z,20.6
2018-06-01T05:10:40.436Z,20.5
2018-06-01T05:11:42.057Z,20.5
2018-06-01T05:12:43.688Z,20.7
2018-06-01T05:13:45.325Z,20.8
2018-06-01T05:14:46.945Z,20.8
2018-06-01T05:15:48.574Z,20.9
2018-06-01T05:16:50.195Z,21.0
2018-06-01T05:17:51.877Z,21.1
2018-06-01T05:18:53.502Z,21.2
2018-06-01T05:19:55.125Z,21.4
2018-06-01T05:20:56.757Z,21.6
2018-06-01T05:21:58.380Z,21.7
2018-06-01T05:23:00.004Z,21.9
2018-06-01T05:24:01.631Z,21.9
2018-06-01T05:25:03.260Z,21.9
2018-06-01T05:26:04.887Z,22.1
2018-06-01T05:27:06.519Z,22.4
2018-06-01T05:28:08.141Z,22.4
2018-06-01T05:29:09.765Z,22.7
2018-06-01T05:30:11.397Z,22.8
2018-06-01T05:31:13.017Z,23.0
2018-06-01T05:32:14.647Z,23.2
2018-06-01T05:33:16.268Z,23.4
2018-06-01T05:34:17.904Z,23.5
2018-06-01T05:35:19.534Z,23.6
2018-06-01T05:36:21.161Z,23.7
2018-06-01T05:37:22.783Z,23.8
2018-06-01T05:38:24.407Z,24.1
2018-06-01T05:39:27.147Z,24.2
2018-06-01T05:40:35.009Z,24.1
2018-06-01T05:41:43.307Z,24.0
2018-06-01T05:42:44.889Z,24.1
2018-06-01T05:43:46.514Z,24.1
2018-06-01T05:44:48.141Z,24.2
2018-06-01T05:45:49.761Z,24.1
2018-06-01T05:46:51.396Z,24.1
2018-06-01T05:47:53.016Z,24.3
2018-06-01T05:48:54.641Z,24.3
2018-06-01T05:49:56.266Z,24.2
2018-06-01T05:50:57.892Z,24.3
2018-06-01T05:51:59.532Z,24.3
2018-06-01T05:53:01.165Z,24.3
2018-06-01T05:54:02.789Z,24.3
2018-06-01T05:55:04.413Z,24.2
2018-06-01T05:56:06.040Z,24.1
2018-06-01T05:57:07.666Z,24.1
2018-06-01T05:58:09.289Z,24.0
2018-06-01T05:59:10.920Z,24.2
2018-06-01T06:00:12.575Z,24.2
2018-06-01T06:01:14.168Z,24.3
2018-06-01T06:02:15.799Z,24.3
2018-06-01T06:03:17.422Z,24.4
2018-06-01T06:04:19.052Z,24.4
2018-06-01T06:05:20.669Z,24.5
2018-06-01T06:06:22.295Z,24.4
2018-06-01T06:07:23.921Z,24.4
2018-06-01T06:08:25.540Z,24.5
2018-06-01T06:09:27.172Z,24.4
2018-06-01T06:10:28.798Z,24.5
2018-06-01T06:11:30.421Z,24.3
2018-06-01T06:12:32.042Z,24.3
2018-06-01T06:13:33.689Z,24.4
2018-06-01T06:14:35.288Z,24.3
2018-06-01T06:15:36.916Z,24.4
2018-06-01T06:16:38.541Z,24.3
2018-06-01T06:17:40.196Z,24.4
2018-06-01T06:18:41.790Z,24.4
2018-06-01T06:19:43.410Z,24.5
2018-06-01T06:20:45.032Z,24.5
2018-06-01T06:21:46.707Z,24.3
2018-06-01T06:22:48.283Z,24.2
2018-06-01T06:23:49.912Z,24.2
2018-06-01T06:24:51.540Z,24.1
2018-06-01T06:25:53.163Z,24.2
2018-06-01T06:26:54.792Z,24.2
2018-06-01T06:27:56.413Z,24.1
2018-06-01T06:28:58.035Z,24.3
2018-06-01T06:29:59.657Z,24.2
2018-06-01T06:31:01.287Z,24.2
2018-06-01T06:32:02.915Z,24.2
2018-06-01T06:33:04.534Z,24.3
2018-06-01T06:34:06.162Z,24.2
2018-06-01T06:35:07.780Z,24.1
2018-06-01T06:36:09.410Z,24.1
2018-06-01T06:37:11.031Z,24.2
2018-06-01T06:38:12.659Z,24.1
2018-06-01T06:39:14.285Z,24.1
2018-06-01T06:40:15.914Z,24.1
2018-06-01T06:41:17.542Z,24.2
2018-06-01T06:42:19.164Z,23.9
2018-06-01T06:43:20.790Z,23.9
2018-06-01T06:44:22.409Z,23.8
2018-06-01T06:45:24.033Z,23.7
2018-06-01T06:46:25.658Z,23.6
2018-06-01T06:47:27.282Z,23.7
2018-06-01T06:48:28.905Z,23.6
2018-06-01T06:49:30.527Z,23.6
2018-06-01T06:50:32.159Z,23.7
2018-06-01T06:51:33.780Z,23.5
2018-06-01T06:52:35.404Z,23.7
2018-06-01T06:53:37.029Z,23.5
2018-06-01T06:54:38.658Z,23.7
2018-06-01T06:55:40.278Z,23.5
2018-06-01T06:56:41.903Z,23.6
2018-06-01T06:57:43.527Z,23.3
2018-06-01T06:58:45.148Z,23.5
2018-06-01T06:59:46.777Z,23.4
2018-06-01T07:00:48.401Z,23.4
2018-06-01T07:01:50.031Z,23.2
2018-06-01T07:02:51.650Z,23.3
2018-06-01T07:03:53.281Z,23.2
2018-06-01T07:04:54.906Z,23.2
2018-06-01T07:05:56.525Z,23.2
2018-06-01T07:06:58.146Z,23.2
2018-06-01T07:07:59.776Z,23.2
2018-06-01T07:09:01.404Z,23.2
2018-06-01T07:10:03.025Z,23.2
2018-06-01T07:11:04.650Z,23.3
2018-06-01T07:12:06.272Z,23.2
2018-06-01T07:13:07.896Z,23.1
2018-06-01T07:14:09.520Z,23.0
2018-06-01T07:15:11.152Z,23.1
2018-06-01T07:16:12.829Z,22.9
2018-06-01T07:17:14.400Z,23.0
2018-06-01T07:18:16.084Z,22.9
2018-06-01T07:19:17.647Z,23.0
2018-06-01T07:20:19.302Z,23.0
2018-06-01T07:21:20.899Z,22.9
2018-06-01T07:22:22.534Z,22.9
2018-06-01T07:23:24.152Z,23.1
2018-06-01T07:24:25.781Z,23.0
2018-06-01T07:25:27.404Z,23.0
2018-06-01T07:26:29.034Z,23.0
2018-06-01T07:27:30.649Z,23.1
2018-06-01T07:28:32.274Z,23.2
2018-06-01T07:29:33.907Z,23.0
2018-06-01T07:30:35.525Z,23.0
2018-06-01T07:31:37.155Z,23.2
2018-06-01T07:32:38.777Z,23.0
2018-06-01T07:33:40.399Z,23.0
2018-06-01T07:34:42.029Z,23.0
2018-06-01T07:35:43.655Z,23.0
2018-06-01T07:36:45.284Z,23.0
2018-06-01T07:37:46.909Z,23.0
2018-06-01T07:38:48.555Z,23.0
2018-06-01T07:39:50.155Z,22.9
2018-06-01T07:40:51.778Z,23.0
2018-06-01T07:41:53.404Z,22.9
2018-06-01T07:42:55.027Z,22.9
2018-06-01T07:43:56.656Z,22.9
2018-06-01T07:44:58.282Z,22.9
2018-06-01T07:45:59.909Z,22.9
2018-06-01T07:47:01.532Z,22.9
2018-06-01T07:48:03.155Z,23.0
2018-06-01T07:49:04.780Z,23.0
2018-06-01T07:50:06.408Z,22.9
2018-06-01T07:51:08.034Z,22.8
2018-06-01T07:52:09.666Z,23.0
2018-06-01T07:53:11.292Z,23.0
2018-06-01T07:54:12.919Z,22.9
2018-06-01T07:55:15.508Z,22.9
2018-06-01T07:56:17.130Z,22.8
2018-06-01T07:57:18.754Z,22.8
2018-06-01T07:58:20.386Z,22.6
2018-06-01T07:59:22.002Z,22.8
2018-06-01T08:00:23.628Z,22.6
2018-06-01T08:01:25.254Z,22.6
2018-06-01T08:02:26.871Z,22.6
2018-06-01T08:03:28.502Z,22.7
2018-06-01T08:04:30.116Z,22.5
2018-06-01T08:05:31.745Z,22.5
2018-06-01T08:06:33.366Z,22.5
2018-06-01T08:07:34.994Z,22.5
2018-06-01T08:08:36.615Z,22.4
2018-06-01T08:09:38.236Z,22.2
2018-06-01T08:10:39.858Z,22.2
2018-06-01T08:11:41.483Z,22.1
2018-06-01T08:12:43.105Z,21.8
2018-06-01T08:13:44.736Z,21.7
2018-06-01T08:14:46.380Z,21.6
2018-06-01T08:15:47.983Z,21.5
2018-06-01T08:16:49.604Z,21.4
2018-06-01T08:17:51.228Z,21.4
2018-06-01T08:18:52.858Z,21.4
2018-06-01T08:19:54.486Z,21.3
2018-06-01T08:20:56.116Z,21.3
2018-06-01T08:21:57.739Z,21.1
2018-06-01T08:22:59.366Z,21.0
2018-06-01T08:24:00.990Z,20.9
2018-06-01T08:25:02.619Z,20.9
2018-06-01T08:26:04.244Z,20.7
2018-06-01T08:27:05.874Z,20.9
2018-06-01T08:28:07.505Z,20.7
2018-06-01T08:29:09.132Z,20.7
2018-06-01T08:30:10.762Z,20.7
2018-06-01T08:31:12.383Z,20.7
2018-06-01T08:32:14.034Z,20.7
2018-06-01T08:33:15.633Z,20.6
2018-06-01T08:34:17.265Z,20.6
2018-06-01T08:35:18.884Z,20.6
2018-06-01T08:36:20.507Z,20.7
2018-06-01T08:37:22.135Z,20.7
2018-06-01T08:38:23.760Z,20.6
2018-06-01T08:39:25.462Z,20.6
2018-06-01T08:40:27.014Z,20.6
2018-06-01T08:41:28.636Z,20.5
2018-06-01T08:42:30.263Z,20.5
2018-06-01T08:43:31.888Z,20.5
2018-06-01T08:44:33.508Z,20.5
2018-06-01T08:45:35.136Z,20.4
2018-06-01T08:46:36.784Z,20.4
2018-06-01T08:47:38.390Z,20.3
2018-06-01T08:48:40.018Z,20.4
2018-06-01T08:49:41.643Z,20.4
2018-06-01T08:50:43.265Z,20.4
2018-06-01T08:51:44.895Z,20.4
2018-06-01T08:52:46.519Z,20.5
2018-06-01T08:53:48.150Z,20.5
2018-06-01T08:54:49.777Z,20.4
2018-06-01T08:55:51.404Z,20.4
2018-06-01T08:56:53.038Z,20.4
2018-06-01T08:57:54.661Z,20.4
2018-06-01T08:58:56.364Z,20.4
2018-06-01T08:59:57.910Z,20.4
2018-06-01T09:00:59.535Z,20.4
2018-06-01T09:02:01.164Z,20.4
2018-06-01T09:03:02.788Z,20.4
2018-06-01T09:04:04.419Z,20.4
2018-06-01T09:05:06.045Z,20.5
2018-06-01T09:06:07.666Z,20.4
2018-06-01T09:07:09.299Z,20.5
2018-06-01T09:08:10.920Z,20.4
2018-06-01T09:09:12.540Z,20.3
2018-06-01T09:10:14.186Z,20.3
2018-06-01T09:11:15.796Z,20.5
2018-06-01T09:12:17.426Z,20.4
2018-06-01T09:13:19.056Z,20.5
2018-06-01T09:14:20.674Z,20.5
2018-06-01T09:15:22.304Z,20.4
2018-06-01T09:16:23.930Z,20.5
2018-06-01T09:17:25.555Z,20.5
2018-06-01T09:18:27.181Z,20.4
2018-06-01T09:19:28.804Z,20.5
2018-06-01T09:20:30.432Z,20.5
2018-06-01T09:21:32.059Z,20.5
2018-06-01T09:22:33.683Z,20.4
2018-06-01T09:23:35.311Z,20.4
2018-06-01T09:24:36.938Z,20.5
2018-06-01T09:25:38.562Z,20.5
2018-06-01T09:26:40.188Z,20.5
2018-06-01T09:27:41.810Z,20.4
2018-06-01T09:28:43.435Z,20.4
2018-06-01T09:29:45.064Z,20.5
2018-06-01T09:30:46.686Z,20.6
2018-06-01T09:31:48.316Z,20.6
2018-06-01T09:32:49.946Z,20.5
2018-06-01T09:33:51.569Z,20.6
2018-06-01T09:34:53.192Z,20.6
2018-06-01T09:35:54.819Z,20.7
2018-06-01T09:36:56.447Z,20.7
2018-06-01T09:37:58.076Z,20.7
2018-06-01T09:38:59.701Z,20.7
2018-06-01T09:40:01.330Z,20.6
2018-06-01T09:41:02.947Z,20.6
2018-06-01T09:42:04.570Z,20.6
2018-06-01T09:43:06.206Z,20.7
2018-06-01T09:44:07.822Z,20.8
2018-06-01T09:45:09.454Z,20.8
2018-06-01T09:46:11.084Z,20.8
2018-06-01T09:47:12.707Z,20.7
2018-06-01T09:48:14.336Z,20.7
2018-06-01T09:49:15.957Z,20.7
2018-06-01T09:50:17.578Z,20.8
2018-06-01T09:51:19.210Z,20.8
2018-06-01T09:52:20.835Z,20.7
2018-06-01T09:53:22.465Z,20.8
2018-06-01T09:54:24.095Z,20.8
2018-06-01T09:55:25.739Z,20.8
2018-06-01T09:56:27.344Z,20.8
2018-06-01T09:57:28.962Z,20.8
2018-06-01T09:58:30.588Z,21.0
2018-06-01T09:59:32.218Z,20.9
2018-06-01T10:00:33.851Z,21.0
2018-06-01T10:01:35.471Z,21.0
2018-06-01T10:02:37.117Z,21.1
2018-06-01T10:03:38.724Z,21.2
2018-06-01T10:04:40.345Z,21.3
2018-06-01T10:05:41.975Z,21.3
2018-06-01T10:06:43.604Z,21.3
2018-06-01T10:07:45.227Z,21.4
2018-06-01T10:08:46.866Z,21.4
2018-06-01T10:09:48.485Z,21.4
2018-06-01T10:10:50.115Z,21.5
2018-06-01T10:11:51.740Z,21.5
2018-06-01T10:12:53.363Z,21.5
2018-06-01T10:13:54.995Z,21.5
2018-06-01T10:14:56.617Z,21.5
2018-06-01T10:15:58.246Z,21.6
2018-06-01T10:16:59.870Z,21.6
2018-06-01T10:18:01.501Z,21.7
2018-06-01T10:19:03.127Z,21.7
2018-06-01T10:20:04.759Z,21.7
2018-06-01T10:21:06.392Z,21.8
2018-06-01T10:22:08.017Z,21.8
2018-06-01T10:23:09.646Z,22.0
2018-06-01T10:24:11.277Z,22.1
2018-06-01T10:25:12.898Z,22.1
2018-06-01T10:26:14.527Z,22.2
2018-06-01T10:27:16.156Z,22.2
2018-06-01T10:28:17.780Z,22.1
2018-06-01T10:29:19.405Z,22.1
2018-06-01T10:30:21.040Z,22.0
2018-06-01T10:31:22.659Z,22.0
2018-06-01T10:32:24.287Z,22.0
2018-06-01T10:33:25.911Z,22.1
2018-06-01T10:34:27.540Z,22.2
2018-06-01T10:35:29.171Z,22.2
2018-06-01T10:36:30.805Z,22.3
2018-06-01T10:37:32.429Z,22.2
2018-06-01T10:38:34.056Z,22.3
2018-06-01T10:39:35.746Z,22.4
2018-06-01T10:40:37.318Z,22.6
2018-06-01T10:41:38.950Z,22.7
2018-06-01T10:42:40.576Z,22.7
2018-06-01T10:43:42.210Z,22.8
2018-06-01T10:44:43.836Z,23.1
2018-06-01T10:45:45.462Z,23.3
2018-06-01T10:46:47.093Z,23.5
2018-06-01T10:47:48.716Z,23.7
2018-06-01T10:48:50.361Z,23.8
2018-06-01T10:49:51.978Z,24.0
2018-06-01T10:50:53.611Z,24.5
2018-06-01T10:51:55.241Z,25.0
2018-06-01T10:52:56.871Z,25.3
2018-06-01T10:53:58.503Z,25.5
2018-06-01T10:55:00.133Z,26.2
2018-06-01T10:56:01.771Z,26.5
2018-06-01T10:57:03.397Z,26.9
2018-06-01T10:58:05.033Z,27.2
2018-06-01T10:59:06.664Z,27.7
2018-06-01T11:00:08.296Z,27.9
2018-06-01T11:01:09.920Z,27.9
2018-06-01T11:02:11.549Z,28.2
2018-06-01T11:03:13.184Z,28.6
2018-06-01T11:04:14.811Z,29.1
2018-06-01T11:05:16.449Z,28.9
2018-06-01T11:06:18.082Z,29.3
2018-06-01T11:07:19.715Z,30.1
2018-06-01T11:08:21.347Z,30.1
2018-06-01T11:09:22.980Z,29.9
2018-06-01T11:10:24.621Z,30.0
2018-06-01T11:11:26.254Z,30.2
2018-06-01T11:12:27.883Z,30.1
2018-06-01T11:13:29.522Z,30.0
2018-06-01T11:14:31.218Z,30.0
2018-06-01T11:15:32.792Z,29.7
2018-06-01T11:16:34.428Z,29.6
2018-06-01T11:17:36.058Z,29.3
2018-06-01T11:18:37.697Z,29.0
2018-06-01T11:19:39.331Z,28.9
2018-06-01T11:20:40.965Z,28.4
2018-06-01T11:21:42.601Z,28.4
2018-06-01T11:22:44.237Z,28.5
2018-06-01T11:23:45.861Z,28.6
2018-06-01T11:24:47.501Z,29.1
2018-06-01T11:25:49.127Z,29.0
2018-06-01T11:26:50.765Z,28.9
2018-06-01T11:27:52.402Z,28.9
2018-06-01T11:28:54.029Z,28.7
2018-06-01T11:29:55.656Z,28.4
2018-06-01T11:30:57.285Z,28.2
2018-06-01T11:31:58.918Z,28.0
2018-06-01T11:33:00.550Z,27.8
2018-06-01T11:34:02.190Z,27.7
2018-06-01T11:35:03.818Z,27.5
2018-06-01T11:36:05.450Z,27.3
2018-06-01T11:37:07.079Z,27.0
2018-06-01T11:38:08.705Z,26.8
2018-06-01T11:39:10.333Z,26.7
2018-06-01T11:40:11.967Z,26.6
2018-06-01T11:41:13.599Z,26.3
2018-06-01T11:42:15.225Z,26.3
2018-06-01T11:43:16.857Z,26.2
2018-06-01T11:44:18.487Z,26.1
2018-06-01T11:45:20.112Z,25.8
2018-06-01T11:46:21.735Z,25.8
2018-06-01T11:47:23.364Z,25.7
2018-06-01T11:48:25.002Z,25.8
2018-06-01T11:49:26.628Z,25.9
2018-06-01T11:50:28.260Z,25.9
2018-06-01T11:51:29.931Z,25.8
2018-06-01T11:52:31.478Z,25.8
2018-06-01T11:53:33.112Z,25.9
2018-06-01T11:54:34.738Z,25.8
2018-06-01T11:55:36.374Z,25.9
2018-06-01T11:56:38.002Z,25.9
2018-06-01T11:57:39.634Z,25.7
2018-06-01T11:58:41.271Z,25.6
2018-06-01T11:59:42.893Z,25.6
2018-06-01T12:00:44.525Z,25.6
2018-06-01T12:01:46.195Z,25.4
2018-06-01T12:02:47.781Z,25.4
2018-06-01T12:03:49.419Z,25.4
2018-06-01T12:04:51.035Z,25.3
2018-06-01T12:05:52.664Z,25.2
2018-06-01T12:06:54.289Z,25.2
2018-06-01T12:07:55.920Z,25.2
2018-06-01T12:08:57.544Z,25.2
2018-06-01T12:09:59.170Z,25.1
2018-06-01T12:11:00.873Z,25.0
2018-06-01T12:12:02.425Z,24.9
2018-06-01T12:13:04.054Z,24.8
2018-06-01T12:14:05.684Z,24.8
2018-06-01T12:15:07.314Z,24.6
2018-06-01T12:16:08.937Z,24.6
2018-06-01T12:17:10.563Z,24.4
2018-06-01T12:18:12.194Z,24.3
2018-06-01T12:19:13.813Z,24.4
2018-06-01T12:20:15.448Z,24.2
2018-06-01T12:21:17.067Z,24.2
2018-06-01T12:22:18.698Z,24.1
2018-06-01T12:23:20.363Z,24.0
2018-06-01T12:24:21.949Z,23.9
2018-06-01T12:25:23.579Z,23.9
2018-06-01T12:26:25.204Z,23.8
2018-06-01T12:27:26.833Z,23.9
2018-06-01T12:28:28.461Z,23.8
2018-06-01T12:29:30.082Z,23.8
2018-06-01T12:30:31.706Z,23.6
2018-06-01T12:31:33.338Z,23.6
2018-06-01T12:32:34.969Z,23.6
2018-06-01T12:33:36.597Z,23.6
2018-06-01T12:34:38.227Z,23.6
2018-06-01T12:35:39.856Z,23.6
2018-06-01T12:36:41.479Z,23.6
2018-06-01T12:37:43.111Z,23.6
2018-06-01T12:38:44.737Z,23.5
2018-06-01T12:39:46.372Z,23.7
2018-06-01T12:40:48.000Z,23.6
2018-06-01T12:41:49.623Z,23.5
2018-06-01T12:42:51.249Z,23.5
2018-06-01T12:43:52.876Z,23.5
2018-06-01T12:44:54.499Z,23.5
2018-06-01T12:45:56.140Z,23.4
2018-06-01T12:46:57.764Z,23.4
2018-06-01T12:47:59.394Z,23.5
2018-06-01T12:49:01.017Z,23.4
2018-06-01T12:50:02.681Z,23.4
2018-06-01T12:51:04.272Z,23.3
2018-06-01T12:52:05.901Z,23.5
2018-06-01T12:53:07.532Z,23.4
2018-06-01T12:54:09.170Z,23.4
2018-06-01T12:55:10.779Z,23.5
2018-06-01T12:56:12.407Z,23.4
2018-06-01T12:57:14.033Z,23.6
2018-06-01T12:58:15.667Z,23.5
2018-06-01T12:59:17.300Z,23.7
2018-06-01T13:00:18.925Z,23.7
2018-06-01T13:01:20.559Z,23.8
2018-06-01T13:02:22.182Z,23.8
2018-06-01T13:03:23.814Z,23.8
2018-06-01T13:04:25.427Z,23.8
2018-06-01T13:05:27.050Z,23.7
2018-06-01T13:06:28.686Z,23.8
2018-06-01T13:07:30.304Z,23.8
2018-06-01T13:08:31.935Z,23.8
2018-06-01T13:09:33.557Z,23.8
2018-06-01T13:10:35.185Z,23.8
2018-06-01T13:11:36.809Z,23.8
2018-06-01T13:12:38.429Z,23.8
2018-06-01T13:13:40.055Z,23.8
2018-06-01T13:14:41.682Z,23.7
2018-06-01T13:15:43.302Z,23.7
2018-06-01T13:16:44.932Z,23.7
2018-06-01T13:17:46.553Z,23.7
2018-06-01T13:18:48.180Z,23.7
2018-06-01T13:19:49.806Z,23.7
2018-06-01T13:20:51.439Z,23.7
2018-06-01T13:21:53.062Z,23.6
2018-06-01T13:22:54.683Z,23.7
2018-06-01T13:23:56.311Z,23.7
2018-06-01T13:24:57.938Z,23.6
2018-06-01T13:25:59.565Z,23.7
2018-06-01T13:27:01.196Z,23.7
2018-06-01T13:28:02.823Z,23.7
2018-06-01T13:29:04.445Z,23.7
2018-06-01T13:30:06.069Z,23.7
2018-06-01T13:31:07.700Z,23.7
2018-06-01T13:32:09.320Z,23.6
2018-06-01T13:33:10.945Z,23.7
2018-06-01T13:34:12.568Z,23.6
2018-06-01T13:35:14.202Z,23.5
2018-06-01T13:36:15.823Z,23.6
2018-06-01T13:37:17.449Z,23.5
2018-06-01T13:38:19.078Z,23.5
2018-06-01T13:39:20.697Z,23.5
2018-06-01T13:40:22.322Z,23.5